Time;durP1;ratioP1;P1;durP2;ratioP2;P2;SDS_P1;SDS_P2;PMS_P1;PMS_P2;Temp;Humidity;BMP_temperature;BMP_pressure;BME280_temperature;BME280_humidity;BME280_pressure;Samples;Min_cycle;Max_cycle;Signal;HPM_P1;HPM_P2
2021/11/16 00:00:37;;;;;;;0.73;0.73;;;5.90;99.90;;;;;;5037548;28;20435;-93
2021/11/16 00:03:05;;;;;;;1.23;0.87;;;5.90;99.90;;;;;;5037110;28;20518;-93
2021/11/16 00:05:32;;;;;;;0.70;0.70;;;5.90;99.90;;;;;;5037661;28;20544;-93
2021/11/16 00:07:59;;;;;;;0.60;0.60;;;5.90;99.90;;;;;;5036986;28;20950;-94
2021/11/16 00:10:27;;;;;;;0.60;0.60;;;5.90;99.90;;;;;;5037184;28;20818;-93
2021/11/16 00:12:54;;;;;;;0.57;0.30;;;5.90;99.90;;;;;;5037302;28;20830;-94
2021/11/16 00:15:21;;;;;;;2.00;0.70;;;5.90;99.90;;;;;;5037537;28;20457;-93
2021/11/16 00:17:48;;;;;;;0.63;0.63;;;5.90;99.90;;;;;;5037110;28;20478;-92
2021/11/16 00:20:16;;;;;;;0.43;0.40;;;5.90;99.90;;;;;;5037322;28;20461;-93
2021/11/16 00:22:45;;;;;;;0.70;0.40;;;5.90;99.90;;;;;;5036848;28;20513;-93
2021/11/16 00:25:22;;;;;;;2.03;2.00;;;6.00;99.90;;;;;;5037506;28;20470;-93
2021/11/16 00:27:51;;;;;;;0.40;0.40;;;6.00;99.90;;;;;;5038426;28;20431;-93
2021/11/16 00:30:18;;;;;;;0.70;0.60;;;5.90;99.90;;;;;;5056190;28;20430;-92
2021/11/16 00:32:46;;;;;;;0.50;0.50;;;5.90;99.90;;;;;;5048385;28;20439;-94
2021/11/16 00:35:12;;;;;;;0.50;0.40;;;5.90;99.90;;;;;;5037924;28;20470;-93
2021/11/16 00:37:40;;;;;;;0.30;0.30;;;5.80;99.90;;;;;;5036932;28;20482;-93
2021/11/16 00:40:09;;;;;;;0.40;0.40;;;5.80;99.90;;;;;;5036905;28;20435;-94
2021/11/16 00:42:36;;;;;;;0.70;0.70;;;5.80;99.90;;;;;;5037310;28;20914;-93
2021/11/16 00:45:06;;;;;;;0.67;0.67;;;5.80;99.90;;;;;;5036861;28;20497;-93
2021/11/16 00:47:32;;;;;;;0.77;0.77;;;5.70;99.90;;;;;;5036783;28;20435;-93
2021/11/16 00:49:59;;;;;;;0.30;0.30;;;5.70;99.90;;;;;;5036587;28;20454;-94
2021/11/16 00:52:26;;;;;;;0.90;0.90;;;5.70;99.90;;;;;;5036664;28;20930;-94
2021/11/16 00:54:53;;;;;;;0.73;0.73;;;5.80;99.90;;;;;;5036480;28;20490;-94
2021/11/16 00:57:20;;;;;;;1.77;1.77;;;5.80;99.90;;;;;;5036161;28;20550;-93
2021/11/16 00:59:47;;;;;;;3.13;2.00;;;5.90;99.90;;;;;;5036508;28;20454;-93
2021/11/16 01:02:15;;;;;;;1.17;0.37;;;5.90;99.90;;;;;;5036421;28;20443;-93
2021/11/16 01:04:48;;;;;;;0.47;0.47;;;5.90;99.90;;;;;;5036336;28;20475;-93
2021/11/16 01:07:15;;;;;;;0.40;0.40;;;5.90;99.90;;;;;;5036179;28;20435;-93
2021/11/16 01:09:43;;;;;;;1.00;1.00;;;5.90;99.90;;;;;;5035888;28;20450;-93
2021/11/16 01:12:11;;;;;;;1.70;0.53;;;5.90;99.90;;;;;;5035918;28;20443;-93
2021/11/16 01:14:38;;;;;;;1.03;1.00;;;6.00;99.90;;;;;;5036209;28;20474;-93
2021/11/16 01:17:05;;;;;;;2.00;0.77;;;5.90;99.90;;;;;;5035980;28;20489;-93
2021/11/16 01:19:33;;;;;;;0.53;0.53;;;5.90;99.90;;;;;;5035909;28;20431;-93
2021/11/16 01:22:00;;;;;;;2.40;2.30;;;5.90;99.90;;;;;;5036069;28;20458;-93
2021/11/16 01:24:27;;;;;;;0.40;0.30;;;5.90;99.90;;;;;;5038398;28;20470;-92
2021/11/16 01:26:54;;;;;;;1.03;1.03;;;5.90;99.90;;;;;;5054851;28;20426;-93
2021/11/16 01:29:21;;;;;;;0.67;0.67;;;5.90;99.90;;;;;;5046976;28;20435;-92
2021/11/16 01:31:51;;;;;;;0.70;0.70;;;5.80;99.90;;;;;;5045469;28;20447;-93
2021/11/16 01:34:24;;;;;;;0.50;0.50;;;5.80;99.90;;;;;;5035993;28;20477;-93
2021/11/16 01:36:52;;;;;;;0.50;0.50;;;5.90;99.90;;;;;;5035649;28;20970;-93
2021/11/16 01:39:19;;;;;;;1.20;1.20;;;5.80;99.90;;;;;;5035605;28;20438;-93
2021/11/16 01:41:45;;;;;;;1.33;0.90;;;5.90;99.90;;;;;;5036535;28;20483;-93
2021/11/16 01:44:12;;;;;;;0.50;0.50;;;5.90;99.90;;;;;;5035605;28;20463;-93
2021/11/16 01:46:39;;;;;;;0.30;0.30;;;5.90;99.90;;;;;;5035487;28;20450;-93
2021/11/16 01:49:09;;;;;;;0.60;0.60;;;5.90;99.90;;;;;;5035469;28;20454;-94
2021/11/16 01:51:36;;;;;;;0.60;0.60;;;5.90;99.90;;;;;;5035284;28;20494;-93
2021/11/16 01:54:06;;;;;;;0.30;0.30;;;5.80;99.90;;;;;;5034907;28;20481;-93
2021/11/16 01:56:34;;;;;;;0.40;0.40;;;5.80;99.90;;;;;;5035397;28;20453;-93
2021/11/16 01:59:01;;;;;;;1.13;1.13;;;5.80;99.90;;;;;;5035025;28;20442;-93
2021/11/16 02:01:29;;;;;;;0.30;0.30;;;5.90;99.90;;;;;;5035294;28;20446;-93
2021/11/16 02:03:56;;;;;;;0.87;0.37;;;5.90;99.90;;;;;;5035353;28;20470;-94
2021/11/16 02:06:24;;;;;;;1.20;1.20;;;5.90;99.90;;;;;;5035149;28;20446;-93
2021/11/16 02:08:54;;;;;;;1.20;1.20;;;5.80;99.90;;;;;;5035365;28;20455;-93
2021/11/16 02:11:23;;;;;;;0.30;0.20;;;5.80;99.90;;;;;;5034862;28;20431;-94
2021/11/16 02:13:50;;;;;;;0.60;0.60;;;5.80;99.90;;;;;;5034512;28;21097;-93
2021/11/16 02:16:17;;;;;;;0.30;0.20;;;5.80;99.90;;;;;;5035016;28;20462;-93
2021/11/16 02:18:44;;;;;;;0.33;0.33;;;5.80;99.90;;;;;;5034891;28;20487;-93
2021/11/16 02:21:13;;;;;;;0.30;0.30;;;5.90;99.90;;;;;;5033900;28;20427;-93
2021/11/16 02:23:41;;;;;;;0.40;0.30;;;5.80;99.90;;;;;;5034978;28;20467;-93
2021/11/16 02:26:09;;;;;;;0.73;0.50;;;5.80;99.90;;;;;;5035086;28;21041;-93
2021/11/16 02:28:37;;;;;;;0.53;0.53;;;5.80;99.90;;;;;;5036132;28;20948;-93
2021/11/16 02:31:04;;;;;;;0.50;0.30;;;5.80;99.90;;;;;;5039838;28;20473;-94
2021/11/16 02:33:31;;;;;;;0.40;0.40;;;5.80;99.90;;;;;;5049639;28;20441;-93
2021/11/16 02:35:58;;;;;;;0.40;0.40;;;5.80;99.90;;;;;;5050717;28;20453;-94
2021/11/16 02:38:27;;;;;;;1.37;0.73;;;5.80;99.90;;;;;;5036788;28;20505;-94
2021/11/16 02:40:53;;;;;;;0.80;0.80;;;5.80;99.90;;;;;;5034678;28;20453;-93
2021/11/16 02:43:21;;;;;;;2.30;0.33;;;5.80;99.90;;;;;;5034446;28;20470;-94
2021/11/16 02:45:48;;;;;;;0.30;0.30;;;5.80;99.90;;;;;;5034731;28;20458;-93
2021/11/16 02:48:15;;;;;;;1.90;1.60;;;5.70;99.90;;;;;;5034502;28;20442;-94
2021/11/16 02:50:44;;;;;;;0.40;0.40;;;5.70;99.90;;;;;;5034673;28;20450;-94
2021/11/16 02:53:11;;;;;;;1.80;0.97;;;5.80;99.90;;;;;;5034658;28;20489;-94
2021/11/16 02:55:40;;;;;;;0.40;0.30;;;5.80;99.90;;;;;;5034699;28;20410;-93
2021/11/16 02:58:07;;;;;;;0.30;0.30;;;5.80;99.90;;;;;;5035188;28;20517;-94
2021/11/16 03:00:35;;;;;;;1.27;1.17;;;5.80;99.90;;;;;;5034525;28;20446;-94
2021/11/16 03:03:02;;;;;;;1.90;1.80;;;5.80;99.90;;;;;;5034019;28;20434;-94
2021/11/16 03:05:31;;;;;;;0.30;0.30;;;5.80;99.90;;;;;;5035009;28;20783;-94
2021/11/16 03:07:59;;;;;;;0.40;0.40;;;5.80;99.90;;;;;;5035054;28;20800;-94
2021/11/16 03:10:29;;;;;;;0.70;0.60;;;5.70;99.90;;;;;;5034292;28;20802;-93
2021/11/16 03:12:57;;;;;;;0.70;0.40;;;5.70;99.90;;;;;;5034399;28;20446;-94
2021/11/16 03:15:24;;;;;;;0.60;0.60;;;5.70;99.90;;;;;;5034217;28;20434;-93
2021/11/16 03:17:52;;;;;;;0.33;0.33;;;5.60;99.90;;;;;;5034354;28;20482;-93
2021/11/16 03:20:19;;;;;;;1.33;0.87;;;5.70;99.90;;;;;;5034422;28;20530;-94
2021/11/16 03:22:50;;;;;;;0.30;0.30;;;5.70;99.90;;;;;;5034307;28;20446;-93
2021/11/16 03:25:18;;;;;;;0.40;0.40;;;5.70;99.90;;;;;;5033920;28;20481;-93
2021/11/16 03:27:50;;;;;;;0.70;0.70;;;5.70;99.90;;;;;;5034113;28;20449;-89
2021/11/16 03:30:18;;;;;;;1.90;0.37;;;5.70;99.90;;;;;;5034994;28;20479;-90
2021/11/16 03:32:45;;;;;;;0.63;0.63;;;5.70;99.90;;;;;;5042923;28;20466;-88
2021/11/16 03:35:12;;;;;;;0.37;0.33;;;5.70;99.90;;;;;;5045769;28;20466;-90
2021/11/16 03:37:44;;;;;;;0.37;0.37;;;5.70;99.90;;;;;;5037835;28;20490;-90
2021/11/16 03:40:12;;;;;;;0.90;0.50;;;5.70;99.90;;;;;;5037595;28;20442;-90
2021/11/16 03:42:44;;;;;;;0.30;0.30;;;5.70;99.90;;;;;;5038534;28;20450;-90
2021/11/16 03:45:12;;;;;;;0.30;0.20;;;5.70;99.90;;;;;;5037588;28;20473;-90
2021/11/16 03:47:40;;;;;;;0.50;0.50;;;5.70;99.90;;;;;;5037765;28;20442;-90
2021/11/16 03:50:09;;;;;;;1.13;0.40;;;5.70;99.90;;;;;;5037462;28;20439;-89
2021/11/16 03:52:40;;;;;;;0.40;0.40;;;5.70;99.90;;;;;;5037723;28;20437;-90
2021/11/16 03:55:07;;;;;;;0.77;0.77;;;5.70;99.90;;;;;;5037297;28;20478;-89
2021/11/16 03:57:35;;;;;;;0.40;0.40;;;5.70;99.90;;;;;;5037554;28;20502;-89
2021/11/16 04:00:03;;;;;;;1.07;0.70;;;5.70;99.90;;;;;;5037419;28;20442;-90
2021/11/16 04:02:29;;;;;;;0.63;0.63;;;5.70;99.90;;;;;;5037289;28;20843;-90
2021/11/16 04:04:58;;;;;;;0.50;0.50;;;5.70;99.90;;;;;;5037179;28;20463;-90
2021/11/16 04:07:24;;;;;;;0.50;0.40;;;5.70;99.90;;;;;;5037245;28;20881;-89
2021/11/16 04:09:51;;;;;;;0.70;0.70;;;5.70;99.90;;;;;;5036895;28;20450;-86
2021/11/16 04:12:18;;;;;;;0.40;0.40;;;5.70;99.90;;;;;;5037136;28;20447;-86
2021/11/16 04:14:45;;;;;;;1.63;1.63;;;5.70;99.90;;;;;;5035947;28;20453;-86
2021/11/16 04:17:12;;;;;;;1.47;1.37;;;5.70;99.90;;;;;;5036157;28;20473;-86
2021/11/16 04:19:39;;;;;;;0.87;0.87;;;5.70;99.90;;;;;;5036083;28;20477;-86
2021/11/16 04:22:07;;;;;;;0.30;0.30;;;5.70;99.90;;;;;;5036497;28;20521;-89
2021/11/16 04:24:34;;;;;;;0.97;0.40;;;5.60;99.90;;;;;;5036724;28;20466;-89
2021/11/16 04:27:01;;;;;;;0.80;0.80;;;5.70;99.90;;;;;;5036819;28;20795;-90
2021/11/16 04:29:28;;;;;;;0.30;0.20;;;5.60;99.90;;;;;;5037063;28;20443;-90
2021/11/16 04:31:56;;;;;;;0.90;0.90;;;5.60;99.90;;;;;;5036380;28;20455;-90
2021/11/16 04:34:23;;;;;;;0.50;0.50;;;5.60;99.90;;;;;;5037512;28;20557;-90
2021/11/16 04:36:50;;;;;;;1.40;0.87;;;5.60;99.90;;;;;;5037948;28;20438;-90
2021/11/16 04:39:18;;;;;;;1.40;1.40;;;5.70;99.90;;;;;;5047683;28;20478;-89
2021/11/16 04:41:45;;;;;;;1.27;0.60;;;5.70;99.90;;;;;;5046412;28;20437;-89
2021/11/16 04:44:12;;;;;;;0.30;0.30;;;5.60;99.90;;;;;;5037453;28;20540;-90
2021/11/16 04:46:39;;;;;;;0.40;0.40;;;5.60;99.90;;;;;;5036922;28;20467;-90
2021/11/16 04:49:09;;;;;;;0.67;0.50;;;5.50;99.90;;;;;;5036742;28;20481;-90
2021/11/16 04:51:47;;;;;;;0.93;0.93;;;5.50;99.90;;;;;;5036558;28;20477;-90
2021/11/16 04:59:56;;;;;;;0.37;0.33;;;5.50;99.90;;;;;;5035173;28;20980;-86
2021/11/16 05:02:37;;;;;;;0.97;0.37;;;5.50;99.90;;;;;;5035314;28;20945;-86
2021/11/16 05:05:07;;;;;;;1.43;1.03;;;5.50;99.90;;;;;;5034955;28;20585;-86
2021/11/16 05:07:35;;;;;;;0.30;0.30;;;5.50;99.90;;;;;;5035398;28;20446;-86
2021/11/16 05:10:04;;;;;;;0.30;0.20;;;5.60;99.90;;;;;;5034911;28;20510;-86
2021/11/16 05:12:33;;;;;;;1.57;1.47;;;5.50;99.90;;;;;;5035224;28;20454;-86
2021/11/16 05:15:03;;;;;;;0.40;0.30;;;5.40;99.90;;;;;;5034782;28;20455;-86
2021/11/16 05:17:30;;;;;;;0.30;0.30;;;5.40;99.90;;;;;;5035165;28;20415;-85
2021/11/16 05:19:57;;;;;;;0.30;0.30;;;5.40;99.90;;;;;;5034698;28;20974;-86
2021/11/16 05:22:24;;;;;;;0.50;0.50;;;5.30;99.90;;;;;;5034959;28;20435;-85
2021/11/16 05:24:51;;;;;;;0.43;0.43;;;5.40;99.90;;;;;;5034969;28;20474;-86
2021/11/16 05:27:18;;;;;;;0.30;0.20;;;5.40;99.90;;;;;;5034922;28;20465;-86
2021/11/16 05:29:47;;;;;;;0.63;0.63;;;5.40;99.90;;;;;;5034521;28;20439;-86
2021/11/16 05:32:13;;;;;;;0.97;0.60;;;5.40;99.90;;;;;;5034567;28;20439;-86
2021/11/16 05:34:40;;;;;;;0.30;0.30;;;5.40;99.90;;;;;;5034688;28;20478;-86
2021/11/16 05:37:07;;;;;;;2.10;1.17;;;5.40;99.90;;;;;;5034845;28;20864;-86
2021/11/16 05:39:34;;;;;;;0.30;0.30;;;5.40;99.90;;;;;;5034757;28;20481;-94
2021/11/16 05:42:01;;;;;;;0.40;0.40;;;5.40;99.90;;;;;;5035967;28;20450;-94
2021/11/16 05:44:28;;;;;;;0.30;0.20;;;5.40;99.90;;;;;;5035690;28;20462;-94
2021/11/16 05:46:56;;;;;;;2.10;2.00;;;5.40;99.90;;;;;;5035818;28;20455;-94
2021/11/16 05:49:25;;;;;;;0.30;0.30;;;5.40;99.90;;;;;;5035732;28;20439;-94
2021/11/16 05:51:52;;;;;;;0.60;0.50;;;5.40;99.90;;;;;;5035574;28;20450;-94
2021/11/16 05:54:20;;;;;;;3.03;0.67;;;5.40;99.90;;;;;;5034968;28;20493;-94
2021/11/16 05:56:46;;;;;;;0.67;0.67;;;5.40;99.90;;;;;;5035396;28;20442;-94
2021/11/16 05:59:14;;;;;;;0.50;0.50;;;5.50;99.90;;;;;;5035190;28;20490;-95
2021/11/16 06:01:42;;;;;;;0.40;0.40;;;5.40;99.90;;;;;;5035169;28;20439;-94
2021/11/16 06:04:10;;;;;;;0.67;0.50;;;5.30;99.90;;;;;;5043148;28;20522;-92
2021/11/16 06:06:39;;;;;;;0.47;0.47;;;5.40;99.90;;;;;;5057846;28;20454;-93
2021/11/16 06:09:07;;;;;;;0.30;0.30;;;5.30;99.90;;;;;;5051759;28;20455;-93
2021/11/16 06:11:34;;;;;;;0.40;0.40;;;5.30;99.90;;;;;;5036067;28;20447;-94
2021/11/16 06:14:01;;;;;;;0.40;0.40;;;5.30;99.90;;;;;;5034650;28;20474;-94
2021/11/16 06:16:28;;;;;;;0.83;0.83;;;5.30;99.90;;;;;;5035191;28;20939;-94
2021/11/16 06:19:00;;;;;;;0.50;0.50;;;5.40;99.90;;;;;;5034676;28;20474;-94
2021/11/16 06:21:30;;;;;;;0.60;0.60;;;5.40;99.90;;;;;;5035058;28;20438;-94
2021/11/16 06:23:57;;;;;;;0.83;0.83;;;5.40;99.90;;;;;;5034849;28;20493;-94
2021/11/16 06:26:26;;;;;;;1.53;0.70;;;5.40;99.90;;;;;;5034573;28;20431;-94
2021/11/16 06:28:52;;;;;;;0.40;0.40;;;5.40;99.90;;;;;;5034894;28;20463;-94
2021/11/16 06:31:21;;;;;;;1.13;0.73;;;5.40;99.90;;;;;;5036704;28;20438;-94
2021/11/16 06:33:48;;;;;;;0.70;0.70;;;5.40;99.90;;;;;;5035136;28;21023;-94
2021/11/16 06:36:15;;;;;;;0.30;0.30;;;5.40;99.90;;;;;;5035390;28;20439;-94
2021/11/16 06:38:43;;;;;;;1.30;1.30;;;5.40;99.90;;;;;;5035038;28;20516;-94
2021/11/16 06:41:10;;;;;;;0.30;0.30;;;5.40;99.90;;;;;;5035031;28;20453;-94
2021/11/16 06:43:38;;;;;;;0.30;0.30;;;5.40;99.90;;;;;;5035342;28;20455;-94
2021/11/16 06:46:06;;;;;;;0.30;0.30;;;5.40;99.90;;;;;;5034932;28;20508;-94
2021/11/16 06:48:33;;;;;;;0.50;0.50;;;5.50;99.90;;;;;;5034539;28;20449;-94
2021/11/16 06:51:01;;;;;;;0.53;0.53;;;5.50;99.90;;;;;;5034582;28;20438;-94
2021/11/16 06:53:29;;;;;;;1.33;1.23;;;5.40;99.90;;;;;;5034183;28;20493;-94
2021/11/16 06:55:58;;;;;;;0.97;0.97;;;5.40;99.90;;;;;;5034340;28;20458;-94
2021/11/16 06:58:27;;;;;;;0.70;0.70;;;5.40;99.90;;;;;;5034172;28;20435;-93
2021/11/16 07:00:55;;;;;;;0.60;0.60;;;5.40;99.90;;;;;;5034505;28;20422;-93
2021/11/16 07:03:24;;;;;;;0.37;0.37;;;5.40;99.90;;;;;;5034834;28;20473;-92
2021/11/16 07:05:53;;;;;;;1.03;1.03;;;5.40;99.90;;;;;;5034427;28;20431;-86
2021/11/16 07:08:32;;;;;;;0.40;0.40;;;5.40;99.90;;;;;;5037662;28;20553;-86
2021/11/16 07:11:12;;;;;;;0.30;0.27;;;5.50;99.90;;;;;;5037503;28;20805;-86
2021/11/16 07:13:56;;;;;;;0.90;0.90;;;5.50;99.90;;;;;;5037351;28;20478;-86
2021/11/16 07:16:24;;;;;;;1.40;0.40;;;5.50;99.90;;;;;;5037429;28;20435;-87
2021/11/16 07:18:56;;;;;;;0.40;0.40;;;5.40;99.90;;;;;;5039981;28;20478;-86
2021/11/16 07:21:24;;;;;;;0.60;0.60;;;5.40;99.90;;;;;;5041505;28;20527;-86
2021/11/16 07:24:09;;;;;;;0.40;0.40;;;5.40;99.90;;;;;;5037235;28;20469;-86
2021/11/16 07:26:39;;;;;;;0.40;0.27;;;5.50;99.90;;;;;;5037008;28;20954;-86
2021/11/16 07:29:08;;;;;;;0.40;0.40;;;5.50;99.90;;;;;;5037633;28;20431;-86
2021/11/16 07:31:36;;;;;;;0.97;0.97;;;5.50;99.90;;;;;;5037357;28;20439;-86
2021/11/16 07:34:09;;;;;;;0.30;0.30;;;5.50;99.90;;;;;;5037133;28;20459;-86
2021/11/16 07:36:36;;;;;;;0.90;0.47;;;5.50;99.90;;;;;;5036754;28;20419;-86
2021/11/16 07:39:05;;;;;;;1.03;0.30;;;5.50;99.90;;;;;;5036775;28;20474;-86
2021/11/16 07:41:32;;;;;;;0.70;0.70;;;5.50;99.90;;;;;;5036654;28;20455;-87
2021/11/16 07:44:11;;;;;;;0.43;0.43;;;5.50;99.90;;;;;;5036861;28;20466;-86
2021/11/16 07:46:39;;;;;;;0.33;0.33;;;5.50;99.90;;;;;;5037282;28;20484;-86
2021/11/16 07:49:05;;;;;;;0.53;0.53;;;5.50;99.90;;;;;;5036757;28;20787;-86
2021/11/16 07:51:32;;;;;;;0.97;0.97;;;5.50;99.90;;;;;;5036452;28;20442;-86
2021/11/16 07:53:59;;;;;;;0.33;0.33;;;5.50;99.90;;;;;;5036733;28;20486;-89
2021/11/16 07:56:26;;;;;;;0.30;0.30;;;5.50;99.90;;;;;;5037104;28;20438;-89
2021/11/16 07:58:58;;;;;;;0.30;0.30;;;5.50;99.90;;;;;;5036876;28;20482;-89
2021/11/16 08:01:36;;;;;;;0.50;0.50;;;5.50;99.90;;;;;;5037547;28;20809;-88
2021/11/16 08:04:08;;;;;;;0.30;0.30;;;5.60;99.90;;;;;;5037013;28;20544;-89
2021/11/16 08:06:37;;;;;;;0.30;0.30;;;5.60;99.90;;;;;;5037470;28;20442;-93
2021/11/16 08:09:18;;;;;;;0.70;0.70;;;5.60;99.90;;;;;;5038145;28;20500;-92
2021/11/16 08:11:47;;;;;;;0.50;0.43;;;5.60;99.90;;;;;;5037314;28;20492;-93
2021/11/16 08:14:16;;;;;;;0.57;0.57;;;5.60;99.90;;;;;;5037085;28;20509;-94
2021/11/16 08:16:56;;;;;;;0.30;0.30;;;5.70;99.90;;;;;;5040586;28;20434;-93
2021/11/16 08:19:26;;;;;;;0.40;0.40;;;5.70;99.90;;;;;;5037158;28;20828;-86
2021/11/16 08:21:56;;;;;;;0.30;0.30;;;5.70;99.90;;;;;;5036024;28;20439;-86
2021/11/16 08:24:24;;;;;;;0.60;0.30;;;5.70;99.90;;;;;;5035974;28;20470;-86
2021/11/16 08:26:53;;;;;;;0.40;0.40;;;5.80;99.90;;;;;;5036507;28;20451;-89
2021/11/16 08:29:27;;;;;;;0.30;0.20;;;5.80;99.90;;;;;;5036631;28;20934;-89
2021/11/16 08:32:03;;;;;;;0.30;0.30;;;5.80;99.90;;;;;;5036701;28;20451;-89
2021/11/16 08:34:31;;;;;;;0.40;0.40;;;5.80;99.90;;;;;;5036472;28;20509;-88
2021/11/16 08:36:58;;;;;;;0.47;0.47;;;5.90;99.90;;;;;;5036476;28;20453;-88
2021/11/16 08:39:36;;;;;;;0.70;0.70;;;6.00;99.90;;;;;;5036001;28;21065;-90
2021/11/16 08:42:08;;;;;;;0.40;0.40;;;6.00;99.90;;;;;;5036457;28;20426;-89
2021/11/16 08:44:47;;;;;;;0.30;0.30;;;6.00;99.90;;;;;;5036060;28;20834;-88
2021/11/16 08:47:16;;;;;;;0.50;0.50;;;6.00;99.90;;;;;;5036195;28;20542;-89
2021/11/16 08:49:44;;;;;;;0.30;0.20;;;6.00;99.90;;;;;;5036207;28;20435;-89
2021/11/16 08:52:16;;;;;;;0.30;0.20;;;6.00;99.90;;;;;;5036027;28;20422;-89
2021/11/16 08:54:55;;;;;;;0.40;0.40;;;6.00;99.90;;;;;;5035616;28;20501;-89
2021/11/16 08:57:23;;;;;;;0.83;0.63;;;5.90;99.90;;;;;;5035711;28;20439;-86
2021/11/16 08:59:50;;;;;;;0.93;0.53;;;5.90;99.90;;;;;;5035200;28;20459;-86
2021/11/16 09:02:20;;;;;;;0.77;0.40;;;5.90;99.90;;;;;;5035232;28;20431;-89
2021/11/16 09:04:47;;;;;;;0.30;0.30;;;5.90;99.90;;;;;;5036009;28;20497;-93
2021/11/16 09:07:25;;;;;;;0.30;0.20;;;5.90;99.90;;;;;;5036310;28;20415;-93
2021/11/16 09:09:59;;;;;;;0.50;0.40;;;6.00;99.90;;;;;;5036365;28;20523;-93
2021/11/16 09:12:48;;;;;;;0.60;0.60;;;5.90;99.90;;;;;;5036436;28;20428;-92
2021/11/16 09:15:22;;;;;;;0.53;0.30;;;6.00;99.90;;;;;;5029769;28;20462;-93
2021/11/16 09:18:08;;;;;;;0.40;0.40;;;6.00;99.90;;;;;;5035879;28;20427;-93
2021/11/16 09:20:35;;;;;;;0.40;0.40;;;6.00;99.90;;;;;;5035981;28;20502;-93
2021/11/16 09:23:03;;;;;;;0.87;0.87;;;6.00;99.90;;;;;;5035910;28;20446;-92
2021/11/16 09:25:32;;;;;;;0.47;0.40;;;6.10;99.90;;;;;;5035921;28;20527;-93
2021/11/16 09:28:05;;;;;;;1.40;0.70;;;6.10;99.90;;;;;;5035665;28;20797;-88
2021/11/16 09:30:37;;;;;;;0.30;0.20;;;6.10;99.90;;;;;;5034765;28;20470;-87
2021/11/16 09:33:08;;;;;;;0.30;0.30;;;6.10;99.90;;;;;;5034668;28;20431;-86
2021/11/16 09:35:58;;;;;;;0.70;0.60;;;6.00;99.90;;;;;;5034889;28;20449;-87
2021/11/16 09:38:42;;;;;;;0.30;0.20;;;6.00;99.90;;;;;;5029691;28;20800;-87
2021/11/16 09:41:10;;;;;;;0.30;0.30;;;6.00;99.90;;;;;;5035010;28;20490;-92
2021/11/16 09:43:37;;;;;;;0.30;0.30;;;6.10;99.90;;;;;;5035892;28;20454;-92
2021/11/16 09:46:06;;;;;;;0.37;0.30;;;6.10;99.90;;;;;;5036283;28;20431;-93
2021/11/16 09:48:36;;;;;;;0.30;0.20;;;6.10;99.90;;;;;;5035807;28;20423;-93
2021/11/16 09:51:14;;;;;;;0.30;0.20;;;6.10;99.90;;;;;;5035166;28;21041;-89
2021/11/16 09:53:41;;;;;;;0.43;0.43;;;6.10;99.90;;;;;;5034584;28;20497;-88
2021/11/16 09:56:18;;;;;;;0.30;0.20;;;6.00;99.90;;;;;;5034696;28;20455;-88
2021/11/16 09:58:45;;;;;;;0.30;0.23;;;6.10;99.90;;;;;;5034953;28;20411;-88
2021/11/16 10:01:21;;;;;;;0.60;0.60;;;6.10;99.90;;;;;;5034438;28;20462;-88
2021/11/16 10:03:52;;;;;;;0.40;0.30;;;6.20;99.90;;;;;;5034663;28;20474;-88
2021/11/16 10:06:19;;;;;;;0.30;0.20;;;6.20;99.90;;;;;;5034858;28;20504;-89
2021/11/16 10:08:46;;;;;;;0.30;0.30;;;6.30;99.90;;;;;;5034454;28;20942;-89
2021/11/16 10:11:12;;;;;;;0.30;0.27;;;6.30;99.90;;;;;;5034763;28;20435;-88
2021/11/16 10:13:39;;;;;;;0.40;0.40;;;6.30;99.90;;;;;;5034584;28;20467;-89
2021/11/16 10:16:07;;;;;;;0.40;0.30;;;6.30;99.90;;;;;;5034334;28;20411;-89
2021/11/16 10:18:37;;;;;;;0.30;0.20;;;6.20;99.90;;;;;;5034904;28;20431;-88
2021/11/16 10:21:07;;;;;;;0.40;0.40;;;6.30;99.90;;;;;;5034368;28;20473;-88
2021/11/16 10:23:36;;;;;;;1.40;0.63;;;6.40;99.90;;;;;;5034938;28;20506;-88
2021/11/16 10:26:05;;;;;;;0.30;0.20;;;6.40;99.90;;;;;;5034342;28;20431;-88
2021/11/16 10:28:34;;;;;;;0.87;0.87;;;6.40;99.90;;;;;;5034604;28;20442;-88
2021/11/16 10:31:02;;;;;;;0.40;0.40;;;6.50;99.90;;;;;;5034396;28;20817;-88
2021/11/16 10:33:33;;;;;;;0.70;0.50;;;6.40;99.90;;;;;;5034228;28;20461;-88
2021/11/16 10:36:04;;;;;;;0.40;0.40;;;6.50;99.90;;;;;;5035667;28;20432;-93
2021/11/16 10:38:34;;;;;;;0.50;0.50;;;6.50;99.90;;;;;;5041936;28;20403;-92
2021/11/16 10:41:05;;;;;;;0.30;0.20;;;6.50;99.90;;;;;;5052512;28;20470;-91
2021/11/16 10:43:35;;;;;;;0.50;0.50;;;6.50;99.90;;;;;;5054173;28;20451;-91
2021/11/16 10:46:05;;;;;;;1.13;1.13;;;6.60;99.90;;;;;;5036626;28;20411;-93
2021/11/16 10:48:34;;;;;;;2.43;0.40;;;6.50;99.90;;;;;;5034915;28;20914;-93
2021/11/16 10:51:07;;;;;;;0.30;0.30;;;6.50;99.90;;;;;;5034811;28;20799;-93
2021/11/16 10:53:35;;;;;;;0.30;0.30;;;6.50;99.90;;;;;;5034135;28;20896;-93
2021/11/16 10:56:04;;;;;;;0.37;0.30;;;6.50;99.90;;;;;;5034054;28;20422;-92
2021/11/16 10:58:34;;;;;;;0.30;0.20;;;6.50;99.90;;;;;;5034266;28;20418;-93
2021/11/16 11:01:05;;;;;;;0.30;0.20;;;6.60;99.90;;;;;;5034219;28;20470;-93
2021/11/16 11:03:33;;;;;;;0.30;0.20;;;6.60;99.90;;;;;;5034305;28;20966;-89
2021/11/16 11:06:05;;;;;;;0.30;0.30;;;6.60;99.90;;;;;;5033869;28;20416;-89
2021/11/16 11:08:40;;;;;;;0.40;0.40;;;6.50;99.90;;;;;;5034019;28;20419;-89
2021/11/16 11:11:15;;;;;;;0.30;0.20;;;6.50;99.90;;;;;;5034126;28;20438;-89
2021/11/16 11:13:46;;;;;;;0.30;0.30;;;6.50;99.90;;;;;;5034509;28;20496;-89
2021/11/16 11:16:15;;;;;;;0.30;0.30;;;6.50;99.90;;;;;;5034392;28;20494;-89
2021/11/16 11:18:48;;;;;;;0.43;0.43;;;6.60;99.90;;;;;;5034344;28;20871;-88
2021/11/16 11:21:28;;;;;;;1.17;0.30;;;6.60;99.90;;;;;;5033594;28;20549;-89
2021/11/16 11:23:59;;;;;;;0.30;0.30;;;6.60;99.90;;;;;;5033858;28;20521;-89
2021/11/16 11:26:33;;;;;;;3.30;0.60;;;6.60;99.90;;;;;;5034398;28;20551;-85
2021/11/16 11:31:49;;;;;;;0.37;0.37;;;6.50;99.90;;;;;;5033004;28;20525;-87
2021/11/16 11:34:16;;;;;;;0.30;0.20;;;6.50;99.90;;;;;;5033362;28;20477;-87
2021/11/16 11:36:44;;;;;;;0.40;0.40;;;6.50;99.90;;;;;;5033314;28;20506;-86
2021/11/16 11:39:24;;;;;;;0.30;0.30;;;6.50;99.90;;;;;;5033242;28;20431;-86
2021/11/16 11:41:54;;;;;;;0.30;0.20;;;6.50;99.90;;;;;;5033073;28;20466;-84
2021/11/16 11:44:20;;;;;;;0.30;0.20;;;6.50;99.90;;;;;;5032998;28;20467;-86
2021/11/16 11:46:50;;;;;;;0.33;0.27;;;6.40;99.90;;;;;;5033042;28;20431;-87
2021/11/16 11:49:17;;;;;;;1.23;1.23;;;6.50;99.90;;;;;;5033080;28;20431;-86
2021/11/16 11:51:44;;;;;;;0.93;0.70;;;6.50;99.90;;;;;;5032966;28;20423;-86
2021/11/16 11:54:11;;;;;;;4.97;0.60;;;6.50;99.90;;;;;;5036522;28;20536;-87
2021/11/16 11:56:40;;;;;;;0.70;0.50;;;6.50;99.90;;;;;;5037221;28;20447;-87
2021/11/16 11:59:07;;;;;;;0.40;0.30;;;6.60;99.90;;;;;;5036881;28;20438;-86
2021/11/16 12:01:34;;;;;;;0.40;0.30;;;6.60;99.90;;;;;;5036695;28;20503;-87
2021/11/16 12:04:01;;;;;;;0.40;0.40;;;6.60;99.90;;;;;;5036328;28;21012;-87
2021/11/16 12:06:30;;;;;;;0.30;0.27;;;6.60;99.90;;;;;;5037192;28;20438;-92
2021/11/16 12:08:59;;;;;;;0.30;0.20;;;6.60;99.90;;;;;;5037569;28;20989;-91
2021/11/16 12:11:27;;;;;;;0.30;0.27;;;6.60;99.90;;;;;;5037300;28;20412;-93
2021/11/16 12:13:57;;;;;;;0.30;0.30;;;6.60;99.90;;;;;;5037298;28;20482;-91
2021/11/16 12:16:33;;;;;;;1.13;1.13;;;6.60;99.90;;;;;;5037323;28;20414;-91
2021/11/16 12:19:07;;;;;;;0.30;0.30;;;6.60;99.90;;;;;;5037818;28;20453;-91
2021/11/16 12:21:36;;;;;;;0.37;0.33;;;6.60;99.90;;;;;;5037050;28;20482;-91
2021/11/16 12:24:05;;;;;;;0.60;0.60;;;6.60;99.90;;;;;;5037438;28;20485;-91
2021/11/16 12:26:35;;;;;;;0.50;0.50;;;6.60;99.90;;;;;;5036766;28;20446;-91
2021/11/16 12:29:16;;;;;;;0.60;0.60;;;6.60;99.90;;;;;;5037128;28;20431;-91
2021/11/16 12:31:46;;;;;;;0.30;0.20;;;6.60;99.90;;;;;;5037734;28;20549;-92
2021/11/16 12:34:13;;;;;;;0.30;0.20;;;6.60;99.90;;;;;;5037926;28;20905;-91
2021/11/16 12:36:50;;;;;;;1.23;1.23;;;6.50;99.90;;;;;;5037843;28;20447;-92
2021/11/16 12:39:19;;;;;;;0.47;0.47;;;6.60;99.90;;;;;;5037377;28;20434;-92
2021/11/16 12:41:47;;;;;;;0.40;0.30;;;6.60;99.90;;;;;;5036531;28;20486;-92
2021/11/16 12:44:18;;;;;;;1.40;0.30;;;6.60;99.90;;;;;;5036721;28;20455;-92
2021/11/16 12:47:01;;;;;;;0.30;0.20;;;6.60;99.90;;;;;;5036988;28;20447;-92
2021/11/16 12:49:33;;;;;;;0.30;0.20;;;6.60;99.90;;;;;;5036770;28;20414;-93
2021/11/16 12:52:03;;;;;;;0.87;0.87;;;6.70;99.90;;;;;;5036424;28;20419;-92
2021/11/16 12:54:33;;;;;;;0.43;0.43;;;6.70;99.90;;;;;;5036247;28;20844;-92
2021/11/16 12:57:10;;;;;;;0.30;0.30;;;6.70;99.90;;;;;;5036233;28;21005;-92
2021/11/16 12:59:58;;;;;;;0.30;0.20;;;6.60;99.90;;;;;;5036701;28;20431;-92
2021/11/16 13:02:28;;;;;;;0.40;0.30;;;6.70;99.90;;;;;;5036170;28;20481;-93
2021/11/16 13:04:56;;;;;;;0.30;0.20;;;6.70;99.90;;;;;;5035767;28;20473;-92
2021/11/16 13:07:26;;;;;;;0.40;0.40;;;6.70;99.90;;;;;;5036588;28;20489;-92
2021/11/16 13:09:54;;;;;;;0.30;0.30;;;6.70;99.90;;;;;;5036070;28;20438;-92
2021/11/16 13:12:47;;;;;;;0.57;0.43;;;6.70;99.90;;;;;;5036079;28;20453;-92
2021/11/16 13:15:37;;;;;;;1.13;1.03;;;6.70;99.90;;;;;;5036055;28;20523;-92
2021/11/16 13:18:07;;;;;;;0.40;0.30;;;6.60;99.90;;;;;;5036753;28;20777;-92